METAR Data
IDs: Format: Raw Decoded Include TAF

Data at: 0843 UTC 01 Aug 2021

LIMZ 010820Z AUTO 33004KT 280V020 9999 BKN012/// 21/18 Q1006